createdAt,value
2019-04-10T00:00:23.086Z,0.00
2019-04-10T00:01:22.231Z,0.00
2019-04-10T00:02:22.213Z,0.00
2019-04-10T00:03:31.975Z,0.00
2019-04-10T00:04:23.189Z,0.00
2019-04-10T00:05:22.184Z,0.00
2019-04-10T00:06:22.169Z,0.00
2019-04-10T00:07:22.240Z,0.00
2019-04-10T00:08:22.146Z,0.00
2019-04-10T00:09:22.976Z,0.00
2019-04-10T00:10:22.121Z,0.00
2019-04-10T00:11:22.794Z,0.00
2019-04-10T00:12:22.100Z,0.00
2019-04-10T00:13:22.623Z,0.00
2019-04-10T00:14:22.081Z,0.00
2019-04-10T00:15:22.183Z,0.00
2019-04-10T00:16:22.410Z,0.00
2019-04-10T00:17:22.046Z,0.00
2019-04-10T00:18:22.177Z,0.00
2019-04-10T00:19:22.441Z,0.00
2019-04-10T00:20:22.540Z,0.00
2019-04-10T00:21:22.903Z,0.00
2019-04-10T00:22:22.239Z,0.00
2019-04-10T00:23:22.714Z,0.00
2019-04-10T00:24:22.020Z,0.00
2019-04-10T00:25:21.955Z,0.00
2019-04-10T00:26:21.948Z,0.00
2019-04-10T00:27:22.796Z,0.00
2019-04-10T00:28:21.922Z,0.00
2019-04-10T00:29:22.415Z,0.00
2019-04-10T00:30:21.902Z,0.00
2019-04-10T00:31:22.926Z,0.00
2019-04-10T00:32:21.882Z,0.00
2019-04-10T00:33:22.882Z,0.00
2019-04-10T00:34:21.856Z,0.00
2019-04-10T00:35:21.848Z,0.00
2019-04-10T00:36:21.834Z,0.00
2019-04-10T00:37:27.210Z,0.00
2019-04-10T00:38:23.955Z,0.00
2019-04-10T00:39:22.317Z,0.00
2019-04-10T00:40:21.796Z,0.00
2019-04-10T00:41:21.896Z,0.00
2019-04-10T00:42:21.765Z,0.00
2019-04-10T00:43:22.568Z,0.00
2019-04-10T00:44:21.743Z,0.00
2019-04-10T00:45:21.741Z,0.00
2019-04-10T00:46:22.144Z,0.00
2019-04-10T00:47:21.709Z,0.00
2019-04-10T00:48:21.756Z,0.00
2019-04-10T00:49:21.858Z,0.00
2019-04-10T00:50:22.327Z,0.00
2019-04-10T00:51:21.665Z,0.00
2019-04-10T00:52:21.860Z,0.00
2019-04-10T00:53:21.641Z,0.00
2019-04-10T00:54:21.772Z,0.00
2019-04-10T00:55:21.847Z,0.00
2019-04-10T00:56:21.610Z,0.00
2019-04-10T00:57:21.598Z,0.00
2019-04-10T00:58:22.504Z,0.00
2019-04-10T00:59:21.577Z,0.00
2019-04-10T01:00:22.041Z,0.00
2019-04-10T01:01:21.557Z,0.00
2019-04-10T01:02:22.490Z,0.00
2019-04-10T01:03:21.779Z,0.00
2019-04-10T01:04:22.352Z,0.00
2019-04-10T01:05:21.512Z,0.00
2019-04-10T01:06:22.040Z,0.00
2019-04-10T01:07:32.897Z,0.00
2019-04-10T01:08:22.476Z,0.00
2019-04-10T01:09:21.558Z,0.00
2019-04-10T01:10:22.041Z,0.00
2019-04-10T01:11:21.444Z,0.00
2019-04-10T01:12:21.596Z,0.00
2019-04-10T01:13:21.422Z,0.00
2019-04-10T01:14:21.459Z,0.00
2019-04-10T01:15:22.550Z,0.00
2019-04-10T01:16:21.387Z,0.00
2019-04-10T01:17:22.259Z,0.00
2019-04-10T01:18:21.451Z,0.00
2019-04-10T01:19:21.351Z,0.00
2019-04-10T01:20:21.715Z,0.00
2019-04-10T01:21:22.074Z,0.00
2019-04-10T01:22:21.325Z,0.00
2019-04-10T01:23:21.309Z,0.00
2019-04-10T01:24:21.682Z,0.00
2019-04-10T01:25:22.070Z,0.00
2019-04-10T01:26:21.281Z,0.00
2019-04-10T01:27:21.265Z,0.00
2019-04-10T01:28:21.252Z,0.00
2019-04-10T01:29:21.733Z,0.00
2019-04-10T01:30:22.178Z,0.00
2019-04-10T01:31:21.439Z,0.00
2019-04-10T01:32:21.212Z,0.00
2019-04-10T01:33:21.199Z,0.00
2019-04-10T01:34:21.229Z,0.00
2019-04-10T01:35:22.359Z,0.00
2019-04-10T01:36:21.167Z,0.00
2019-04-10T01:37:21.163Z,0.00
2019-04-10T01:38:21.819Z,0.00
2019-04-10T01:39:22.177Z,0.00
2019-04-10T01:40:21.737Z,0.00
2019-04-10T01:41:21.112Z,0.00
2019-04-10T01:42:21.096Z,0.00
2019-04-10T01:43:21.090Z,0.00
2019-04-10T01:44:21.080Z,0.00
2019-04-10T01:45:21.726Z,0.00
2019-04-10T01:46:21.981Z,0.00
2019-04-10T01:47:21.362Z,0.00
2019-04-10T01:48:21.044Z,0.00
2019-04-10T01:49:21.760Z,0.00
2019-04-10T01:50:22.137Z,0.00
2019-04-10T01:51:21.387Z,0.00
2019-04-10T01:52:20.990Z,0.00
2019-04-10T01:53:21.753Z,0.00
2019-04-10T01:54:20.981Z,0.00
2019-04-10T01:55:25.732Z,0.00
2019-04-10T01:56:29.449Z,0.00
2019-04-10T01:57:22.025Z,0.00
2019-04-10T01:58:21.132Z,0.00
2019-04-10T01:59:21.512Z,0.00
2019-04-10T02:00:21.580Z,0.00
2019-04-10T02:01:20.889Z,0.00
2019-04-10T02:02:21.166Z,0.00
2019-04-10T02:03:20.868Z,0.00
2019-04-10T02:04:20.857Z,0.00
2019-04-10T02:05:20.849Z,0.00
2019-04-10T02:06:21.073Z,0.00
2019-04-10T02:07:20.831Z,0.00
2019-04-10T02:08:21.505Z,0.00
2019-04-10T02:09:21.427Z,0.00
2019-04-10T02:10:20.793Z,0.00
2019-04-10T02:11:21.765Z,0.00
2019-04-10T02:12:20.787Z,0.00
2019-04-10T02:13:20.758Z,0.00
2019-04-10T02:14:20.746Z,0.00
2019-04-10T02:15:21.692Z,0.00
2019-04-10T02:16:20.898Z,0.00
2019-04-10T02:17:20.717Z,0.00
2019-04-10T02:18:21.415Z,0.00
2019-04-10T02:19:21.661Z,0.00
2019-04-10T02:20:21.035Z,0.00
2019-04-10T02:21:20.673Z,0.00
2019-04-10T02:22:20.661Z,0.00
2019-04-10T02:23:20.761Z,0.00
2019-04-10T02:24:20.640Z,0.00
2019-04-10T02:25:20.639Z,0.00
2019-04-10T02:26:21.296Z,0.00
2019-04-10T02:27:20.606Z,0.00
2019-04-10T02:28:20.754Z,0.00
2019-04-10T02:29:21.561Z,0.00
2019-04-10T02:30:21.912Z,0.00
2019-04-10T02:31:21.619Z,0.00
2019-04-10T02:32:21.062Z,0.00
2019-04-10T02:33:20.541Z,0.00
2019-04-10T02:34:21.279Z,0.00
2019-04-10T02:35:23.709Z,0.00
2019-04-10T02:36:21.279Z,0.00
2019-04-10T02:37:20.501Z,0.00
2019-04-10T02:38:35.995Z,0.00
2019-04-10T02:39:31.254Z,0.00
2019-04-10T02:40:21.509Z,0.00
2019-04-10T02:41:21.572Z,0.00
2019-04-10T02:42:20.916Z,0.00
2019-04-10T02:43:21.052Z,0.00
2019-04-10T02:44:20.649Z,0.00
2019-04-10T02:45:21.773Z,0.00
2019-04-10T02:46:21.710Z,0.00
2019-04-10T02:47:21.134Z,0.00
2019-04-10T02:48:20.375Z,0.00
2019-04-10T02:49:20.429Z,0.00
2019-04-10T02:50:20.777Z,0.00
2019-04-10T02:51:22.914Z,0.00
2019-04-10T02:52:20.395Z,0.00
2019-04-10T02:53:21.591Z,0.00
2019-04-10T02:54:21.331Z,0.00
2019-04-10T02:55:20.383Z,0.00
2019-04-10T02:56:21.488Z,0.00
2019-04-10T02:57:21.432Z,0.00
2019-04-10T02:58:20.531Z,0.00
2019-04-10T02:59:21.113Z,0.00
2019-04-10T03:00:22.041Z,0.00
2019-04-10T03:01:20.236Z,0.00
2019-04-10T03:02:20.322Z,0.00
2019-04-10T03:03:20.244Z,0.00
2019-04-10T03:04:20.707Z,0.00
2019-04-10T03:05:22.916Z,0.00
2019-04-10T03:06:20.647Z,0.00
2019-04-10T03:07:21.904Z,0.00
2019-04-10T03:08:37.115Z,0.00
2019-04-10T03:09:37.202Z,0.00
2019-04-10T03:10:31.603Z,0.00
2019-04-10T03:11:22.268Z,0.00
2019-04-10T03:12:21.732Z,0.00
2019-04-10T03:13:21.740Z,0.00
2019-04-10T03:14:21.212Z,0.00
2019-04-10T03:15:20.107Z,0.00
2019-04-10T03:16:20.072Z,0.00
2019-04-10T03:17:20.063Z,0.00
2019-04-10T03:18:20.980Z,0.00
2019-04-10T03:19:20.042Z,0.00
2019-04-10T03:20:20.449Z,0.00
2019-04-10T03:21:20.782Z,0.00
2019-04-10T03:22:20.831Z,0.00
2019-04-10T03:23:20.870Z,0.00
2019-04-10T03:24:21.198Z,0.00
2019-04-10T03:25:21.144Z,0.00
2019-04-10T03:26:19.960Z,0.00
2019-04-10T03:27:20.543Z,0.00
2019-04-10T03:28:19.937Z,0.00
2019-04-10T03:29:19.957Z,0.00
2019-04-10T03:30:21.034Z,0.00
2019-04-10T03:31:20.741Z,0.00
2019-04-10T03:32:21.105Z,0.00
2019-04-10T03:33:24.593Z,0.00
2019-04-10T03:34:22.687Z,0.00
2019-04-10T03:35:20.697Z,0.00
2019-04-10T03:36:19.854Z,0.00
2019-04-10T03:37:20.280Z,0.00
2019-04-10T03:38:19.834Z,0.00
2019-04-10T03:39:19.829Z,0.00
2019-04-10T03:40:19.813Z,0.00
2019-04-10T03:41:19.882Z,0.00
2019-04-10T03:42:19.784Z,0.00
2019-04-10T03:43:19.771Z,0.00
2019-04-10T03:44:20.745Z,0.00
2019-04-10T03:45:20.224Z,0.00
2019-04-10T03:46:19.740Z,0.00
2019-04-10T03:47:19.728Z,0.00
2019-04-10T03:48:20.165Z,0.00
2019-04-10T03:49:19.987Z,0.00
2019-04-10T03:50:19.700Z,0.00
2019-04-10T03:51:20.613Z,0.00
2019-04-10T03:52:19.686Z,0.00
2019-04-10T03:53:20.286Z,0.00
2019-04-10T03:54:20.721Z,0.00
2019-04-10T03:55:20.721Z,0.00
2019-04-10T03:56:19.629Z,0.00
2019-04-10T03:57:20.577Z,0.00
2019-04-10T03:58:19.755Z,0.00
2019-04-10T03:59:20.173Z,0.00
2019-04-10T04:00:20.956Z,0.00
2019-04-10T04:01:19.700Z,0.00
2019-04-10T04:02:19.841Z,0.00
2019-04-10T04:03:20.396Z,0.00
2019-04-10T04:04:19.656Z,0.00
2019-04-10T04:05:20.353Z,0.00
2019-04-10T04:06:19.604Z,0.00
2019-04-10T04:07:19.519Z,0.00
2019-04-10T04:08:19.499Z,0.00
2019-04-10T04:09:19.663Z,0.00
2019-04-10T04:10:20.485Z,0.00
2019-04-10T04:11:19.728Z,0.00
2019-04-10T04:12:20.235Z,0.00
2019-04-10T04:13:19.588Z,0.00
2019-04-10T04:14:19.954Z,0.00
2019-04-10T04:15:19.898Z,0.00
2019-04-10T04:16:19.416Z,0.00
2019-04-10T04:17:20.061Z,0.00
2019-04-10T04:18:19.388Z,0.00
2019-04-10T04:19:19.380Z,0.00
2019-04-10T04:20:19.370Z,0.00
2019-04-10T04:21:19.596Z,0.00
2019-04-10T04:22:19.354Z,0.00
2019-04-10T04:23:19.502Z,0.00
2019-04-10T04:24:21.291Z,0.00
2019-04-10T04:25:19.317Z,0.00
2019-04-10T04:26:19.301Z,0.00
2019-04-10T04:27:19.991Z,0.00
2019-04-10T04:28:19.281Z,0.00
2019-04-10T04:29:19.272Z,0.00
2019-04-10T04:30:20.374Z,0.00
2019-04-10T04:31:19.250Z,0.00
2019-04-10T04:32:19.676Z,0.00
2019-04-10T04:33:19.238Z,5.62
2019-04-10T04:34:19.213Z,5.62
2019-04-10T04:35:19.934Z,5.62
2019-04-10T04:36:20.297Z,5.62
2019-04-10T04:37:19.190Z,5.62
2019-04-10T04:38:19.990Z,11.25
2019-04-10T04:39:24.946Z,11.25
2019-04-10T04:40:20.147Z,16.88
2019-04-10T04:41:19.594Z,16.88
2019-04-10T04:42:19.133Z,16.88
2019-04-10T04:43:19.119Z,16.88
2019-04-10T04:44:20.157Z,16.88
2019-04-10T04:45:19.487Z,16.88
2019-04-10T04:46:19.088Z,22.50
2019-04-10T04:47:19.139Z,22.50
2019-04-10T04:48:19.517Z,22.50
2019-04-10T04:49:19.054Z,22.50
2019-04-10T04:50:19.958Z,28.12
2019-04-10T04:51:19.672Z,28.12
2019-04-10T04:52:19.021Z,28.12
2019-04-10T04:53:19.011Z,33.75
2019-04-10T04:54:19.238Z,33.75
2019-04-10T04:55:19.783Z,39.38
2019-04-10T04:56:19.935Z,39.38
2019-04-10T04:57:18.967Z,39.38
2019-04-10T04:58:20.190Z,45.00
2019-04-10T04:59:18.943Z,45.00
2019-04-10T05:00:18.934Z,50.62
2019-04-10T05:01:19.029Z,50.62
2019-04-10T05:02:19.926Z,56.25
2019-04-10T05:03:18.906Z,56.25
2019-04-10T05:04:19.383Z,61.88
2019-04-10T05:05:18.876Z,61.88
2019-04-10T05:06:18.867Z,67.50
2019-04-10T05:07:18.855Z,73.12
2019-04-10T05:08:18.857Z,73.12
2019-04-10T05:09:30.057Z,78.75
2019-04-10T05:10:20.876Z,84.38
2019-04-10T05:11:18.811Z,84.38
2019-04-10T05:12:20.056Z,90.00
2019-04-10T05:13:19.012Z,95.62
2019-04-10T05:14:19.585Z,101.25
2019-04-10T05:15:18.767Z,106.88
2019-04-10T05:16:18.777Z,112.50
2019-04-10T05:17:19.927Z,112.50
2019-04-10T05:18:19.074Z,118.12
2019-04-10T05:19:18.985Z,123.75
2019-04-10T05:20:19.007Z,129.38
2019-04-10T05:21:19.158Z,135.00
2019-04-10T05:22:18.813Z,140.62
2019-04-10T05:23:18.686Z,146.25
2019-04-10T05:24:18.667Z,151.88
2019-04-10T05:25:19.031Z,163.12
2019-04-10T05:26:18.734Z,168.75
2019-04-10T05:27:18.642Z,180.00
2019-04-10T05:28:19.024Z,185.62
2019-04-10T05:29:19.653Z,202.50
2019-04-10T05:30:18.608Z,213.75
2019-04-10T05:31:19.310Z,219.38
2019-04-10T05:32:18.601Z,225.00
2019-04-10T05:33:18.570Z,225.00
2019-04-10T05:34:18.568Z,225.00
2019-04-10T05:35:19.284Z,236.25
2019-04-10T05:36:19.451Z,270.00
2019-04-10T05:37:19.145Z,292.50
2019-04-10T05:38:18.786Z,292.50
2019-04-10T05:39:19.046Z,298.12
2019-04-10T05:40:19.409Z,292.50
2019-04-10T05:41:19.585Z,298.12
2019-04-10T05:42:18.489Z,298.12
2019-04-10T05:43:18.461Z,303.75
2019-04-10T05:44:18.446Z,326.25
2019-04-10T05:45:18.437Z,315.00
2019-04-10T05:46:18.625Z,309.38
2019-04-10T05:47:19.254Z,309.38
2019-04-10T05:48:21.024Z,315.00
2019-04-10T05:49:18.393Z,315.00
2019-04-10T05:50:19.359Z,309.38
2019-04-10T05:51:19.179Z,320.62
2019-04-10T05:52:18.365Z,326.25
2019-04-10T05:53:18.496Z,331.88
2019-04-10T05:54:19.216Z,337.50
2019-04-10T05:55:18.368Z,337.50
2019-04-10T05:56:19.183Z,320.62
2019-04-10T05:57:18.307Z,315.00
2019-04-10T05:58:18.296Z,320.62
2019-04-10T05:59:18.315Z,331.88
2019-04-10T06:00:18.838Z,337.50
2019-04-10T06:01:29.969Z,337.50
2019-04-10T06:02:19.255Z,337.50
2019-04-10T06:03:18.625Z,348.75
2019-04-10T06:04:18.960Z,354.38
2019-04-10T06:05:18.217Z,365.62
2019-04-10T06:06:18.205Z,416.25
2019-04-10T06:07:19.181Z,421.88
2019-04-10T06:08:18.203Z,444.38
2019-04-10T06:09:18.171Z,450.00
2019-04-10T06:10:18.161Z,540.00
2019-04-10T06:11:18.144Z,731.25
2019-04-10T06:12:18.220Z,905.62
2019-04-10T06:13:19.244Z,956.25
2019-04-10T06:14:18.114Z,1091.25
2019-04-10T06:15:19.097Z,990.00
2019-04-10T06:16:18.098Z,990.00
2019-04-10T06:17:18.411Z,888.75
2019-04-10T06:18:18.728Z,1091.25
2019-04-10T06:19:18.065Z,1181.25
2019-04-10T06:20:18.073Z,1001.25
2019-04-10T06:21:18.835Z,855.00
2019-04-10T06:22:18.709Z,838.12
2019-04-10T06:23:19.064Z,855.00
2019-04-10T06:24:18.324Z,804.38
2019-04-10T06:25:19.554Z,759.38
2019-04-10T06:26:17.993Z,663.75
2019-04-10T06:27:18.518Z,568.12
2019-04-10T06:28:17.992Z,585.00
2019-04-10T06:29:19.102Z,590.62
2019-04-10T06:30:17.940Z,590.62
2019-04-10T06:31:18.676Z,585.00
2019-04-10T06:32:19.072Z,641.25
2019-04-10T06:33:18.024Z,669.38
2019-04-10T06:34:18.817Z,787.50
2019-04-10T06:35:17.882Z,877.50
2019-04-10T06:36:17.875Z,877.50
2019-04-10T06:37:17.865Z,1018.12
2019-04-10T06:38:18.906Z,1102.50
2019-04-10T06:39:18.426Z,1305.00
2019-04-10T06:40:21.050Z,1372.50
2019-04-10T06:41:19.117Z,1383.75
2019-04-10T06:42:17.807Z,1372.50
2019-04-10T06:43:18.832Z,1383.75
2019-04-10T06:44:17.780Z,1361.25
2019-04-10T06:45:17.893Z,1395.00
2019-04-10T06:46:17.758Z,1395.00
2019-04-10T06:47:18.137Z,1839.38
2019-04-10T06:48:17.736Z,2036.25
2019-04-10T06:49:17.730Z,1743.75
2019-04-10T06:50:18.897Z,1558.12
2019-04-10T06:51:19.875Z,1535.62
2019-04-10T06:52:18.570Z,1563.75
2019-04-10T06:53:18.718Z,1839.38
2019-04-10T06:54:17.671Z,2143.12
2019-04-10T06:55:18.590Z,2199.38
2019-04-10T06:56:18.712Z,1940.62
2019-04-10T06:57:18.685Z,1816.88
2019-04-10T06:58:17.926Z,1963.12
2019-04-10T06:59:17.665Z,1968.75
2019-04-10T07:00:19.252Z,2244.38
2019-04-10T07:01:20.931Z,2947.50
2019-04-10T07:02:25.537Z,2643.75
2019-04-10T07:03:18.950Z,2396.25
2019-04-10T07:04:18.145Z,2621.25
2019-04-10T07:05:17.547Z,2632.50
2019-04-10T07:06:21.660Z,2137.50
2019-04-10T07:07:21.755Z,2205.00
2019-04-10T07:08:21.432Z,2812.50
2019-04-10T07:09:18.184Z,3600.00
2019-04-10T07:10:25.877Z,3414.38
2019-04-10T07:11:20.493Z,3352.50
2019-04-10T07:12:18.528Z,3633.75
2019-04-10T07:13:17.645Z,3155.62
2019-04-10T07:14:18.347Z,2210.62
2019-04-10T07:15:21.167Z,1642.50
2019-04-10T07:16:18.425Z,1524.38
2019-04-10T07:17:17.988Z,1479.38
2019-04-10T07:18:20.307Z,1395.00
2019-04-10T07:19:17.736Z,1338.75
2019-04-10T07:20:19.158Z,1321.88
2019-04-10T07:21:17.382Z,1327.50
2019-04-10T07:22:17.771Z,1310.62
2019-04-10T07:23:23.340Z,1305.00
2019-04-10T07:24:18.835Z,1321.88
2019-04-10T07:25:17.508Z,1305.00
2019-04-10T07:26:21.752Z,1293.75
2019-04-10T07:27:19.431Z,1310.62
2019-04-10T07:28:17.456Z,1321.88
2019-04-10T07:29:21.136Z,1333.12
2019-04-10T07:30:19.400Z,1372.50
2019-04-10T07:31:17.376Z,1411.88
2019-04-10T07:32:18.289Z,1411.88
2019-04-10T07:33:19.416Z,1440.00
2019-04-10T07:34:20.032Z,1451.25
2019-04-10T07:35:19.887Z,1395.00
2019-04-10T07:36:18.018Z,1366.88
2019-04-10T07:37:18.456Z,1372.50
2019-04-10T07:38:18.363Z,1372.50
2019-04-10T07:39:17.364Z,1366.88
2019-04-10T07:40:17.167Z,1378.12
2019-04-10T07:41:21.338Z,1395.00
2019-04-10T07:42:26.848Z,1406.25
2019-04-10T07:43:22.226Z,1417.50
2019-04-10T07:44:18.114Z,1445.62
2019-04-10T07:45:17.110Z,1485.00
2019-04-10T07:46:17.358Z,1490.62
2019-04-10T07:47:17.433Z,1496.25
2019-04-10T07:48:17.078Z,1513.12
2019-04-10T07:49:19.325Z,1513.12
2019-04-10T07:50:17.054Z,1524.38
2019-04-10T07:51:17.057Z,1513.12
2019-04-10T07:52:19.712Z,1513.12
2019-04-10T07:53:17.020Z,1518.75
2019-04-10T07:54:20.832Z,1518.75
2019-04-10T07:55:17.042Z,1524.38
2019-04-10T07:56:20.372Z,1541.25
2019-04-10T07:57:17.127Z,1563.75
2019-04-10T07:58:17.340Z,1586.25
2019-04-10T07:59:16.952Z,1603.12
2019-04-10T08:00:18.063Z,1653.75
2019-04-10T08:01:16.935Z,1850.62
2019-04-10T08:02:16.935Z,2165.62
2019-04-10T08:03:16.933Z,2351.25
2019-04-10T08:04:17.971Z,2373.75
2019-04-10T08:05:16.901Z,2278.12
2019-04-10T08:06:17.917Z,2373.75
2019-04-10T08:07:26.673Z,2671.88
2019-04-10T08:08:17.867Z,2863.12
2019-04-10T08:09:16.846Z,2823.75
2019-04-10T08:10:17.902Z,2857.50
2019-04-10T08:11:17.570Z,2773.12
2019-04-10T08:12:16.816Z,2722.50
2019-04-10T08:13:16.805Z,2846.25
2019-04-10T08:14:16.908Z,2801.25
2019-04-10T08:15:16.881Z,3054.38
2019-04-10T08:16:17.049Z,3178.12
2019-04-10T08:17:16.764Z,2880.00
2019-04-10T08:18:16.839Z,3121.88
2019-04-10T08:19:16.747Z,3060.00
2019-04-10T08:20:17.710Z,2317.50
2019-04-10T08:21:17.747Z,2041.88
2019-04-10T08:22:17.881Z,1625.62
2019-04-10T08:23:17.526Z,2244.38
2019-04-10T08:24:16.687Z,2193.75
2019-04-10T08:25:16.676Z,1485.00
2019-04-10T08:26:16.679Z,1327.50
2019-04-10T08:27:17.186Z,1906.88
2019-04-10T08:28:17.722Z,2266.88
2019-04-10T08:29:16.638Z,2570.62
2019-04-10T08:30:17.431Z,2632.50
2019-04-10T08:31:17.036Z,2452.50
2019-04-10T08:32:16.603Z,2266.88
2019-04-10T08:33:17.485Z,2199.38
2019-04-10T08:34:17.262Z,2165.62
2019-04-10T08:35:17.455Z,2272.50
2019-04-10T08:36:16.577Z,2092.50
2019-04-10T08:37:17.374Z,2548.12
2019-04-10T08:38:17.273Z,3178.12
2019-04-10T08:39:28.608Z,3150.00
2019-04-10T08:40:17.521Z,3121.88
2019-04-10T08:41:17.144Z,3183.75
2019-04-10T08:42:16.830Z,2925.00
2019-04-10T08:43:16.486Z,3015.00
2019-04-10T08:44:17.682Z,3268.12
2019-04-10T08:45:16.834Z,3352.50
2019-04-10T08:46:17.659Z,3335.62
2019-04-10T08:47:17.265Z,3251.25
2019-04-10T08:48:17.640Z,3223.12
2019-04-10T08:49:16.429Z,2913.75
2019-04-10T08:50:17.360Z,2964.38
2019-04-10T08:51:17.070Z,3133.12
2019-04-10T08:52:16.661Z,2733.75
2019-04-10T08:53:16.385Z,2986.88
2019-04-10T08:54:16.373Z,3465.00
2019-04-10T08:55:17.621Z,3819.38
2019-04-10T08:56:16.355Z,3976.88
2019-04-10T08:57:17.159Z,3881.25
2019-04-10T08:58:16.672Z,4066.88
2019-04-10T08:59:16.318Z,3976.88
2019-04-10T09:00:16.522Z,3746.25
2019-04-10T09:01:17.342Z,3813.75
2019-04-10T09:02:16.291Z,3858.75
2019-04-10T09:03:17.018Z,3673.12
2019-04-10T09:04:16.276Z,3363.75
2019-04-10T09:05:17.433Z,2941.88
2019-04-10T09:06:17.428Z,3386.25
2019-04-10T09:07:16.244Z,3667.50
2019-04-10T09:08:17.043Z,3774.38
2019-04-10T09:09:17.238Z,3802.50
2019-04-10T09:10:16.469Z,3853.12
2019-04-10T09:11:25.493Z,4263.75
2019-04-10T09:12:17.799Z,4235.62
2019-04-10T09:13:16.761Z,3729.38
2019-04-10T09:14:17.030Z,3825.00
2019-04-10T09:15:16.157Z,3633.75
2019-04-10T09:16:16.242Z,3296.25
2019-04-10T09:17:17.303Z,2638.12
2019-04-10T09:18:16.858Z,1704.38
2019-04-10T09:19:16.195Z,4033.12
2019-04-10T09:20:16.395Z,4145.62
2019-04-10T09:21:16.098Z,3819.38
2019-04-10T09:22:16.256Z,2716.88
2019-04-10T09:23:26.285Z,2891.25
2019-04-10T09:24:17.494Z,3785.62
2019-04-10T09:25:16.564Z,3189.38
2019-04-10T09:26:16.096Z,3279.38
2019-04-10T09:27:17.109Z,3515.62
2019-04-10T09:28:16.183Z,3217.50
2019-04-10T09:29:16.140Z,3577.50
2019-04-10T09:30:16.411Z,3616.88
2019-04-10T09:31:16.004Z,3628.12
2019-04-10T09:32:15.984Z,4095.00
2019-04-10T09:33:23.015Z,3774.38
2019-04-10T09:34:17.930Z,4061.25
2019-04-10T09:35:16.359Z,3982.50
2019-04-10T09:36:15.944Z,4010.62
2019-04-10T09:37:15.938Z,3864.38
2019-04-10T09:38:16.758Z,3532.50
2019-04-10T09:39:17.096Z,3448.12
2019-04-10T09:40:16.256Z,3076.88
2019-04-10T09:41:15.901Z,3414.38
2019-04-10T09:42:17.087Z,2542.50
2019-04-10T09:43:15.873Z,3622.50
2019-04-10T09:44:15.862Z,3262.50
2019-04-10T09:45:15.862Z,4027.50
2019-04-10T09:46:16.205Z,2941.88
2019-04-10T09:47:16.435Z,3470.62
2019-04-10T09:48:16.555Z,3538.12
2019-04-10T09:49:16.598Z,3847.50
2019-04-10T09:50:15.812Z,3813.75
2019-04-10T09:51:18.021Z,4297.50
2019-04-10T09:52:15.793Z,4640.62
2019-04-10T09:53:16.942Z,4224.38
2019-04-10T09:54:15.771Z,4207.50
2019-04-10T09:55:15.947Z,4162.50
2019-04-10T09:56:15.747Z,3965.62
2019-04-10T09:57:15.736Z,3954.38
2019-04-10T09:58:15.734Z,3825.00
2019-04-10T09:59:16.045Z,4286.25
2019-04-10T10:00:15.709Z,4567.50
2019-04-10T10:01:15.732Z,4455.00
2019-04-10T10:02:16.199Z,3926.25
2019-04-10T10:03:15.686Z,3363.75
2019-04-10T10:04:15.685Z,3211.88
2019-04-10T10:05:15.721Z,3301.88
2019-04-10T10:06:24.349Z,3628.12
2019-04-10T10:07:16.642Z,4201.88
2019-04-10T10:08:16.224Z,4078.12
2019-04-10T10:09:15.629Z,3656.25
2019-04-10T10:10:15.619Z,3813.75
2019-04-10T10:11:15.610Z,3858.75
2019-04-10T10:12:15.849Z,3211.88
2019-04-10T10:13:15.589Z,2677.50
2019-04-10T10:14:16.606Z,2458.12
2019-04-10T10:15:16.759Z,2638.12
2019-04-10T10:16:15.565Z,2767.50
2019-04-10T10:17:16.787Z,2525.62
2019-04-10T10:18:15.554Z,2801.25
2019-04-10T10:19:16.110Z,3048.75
2019-04-10T10:20:15.522Z,3088.12
2019-04-10T10:21:16.574Z,3133.12
2019-04-10T10:22:15.506Z,3043.12
2019-04-10T10:23:15.818Z,1327.50
2019-04-10T10:24:16.274Z,1288.12
2019-04-10T10:25:15.474Z,1293.75
2019-04-10T10:26:15.500Z,1366.88
2019-04-10T10:27:15.688Z,1603.12
2019-04-10T10:28:15.450Z,2486.25
2019-04-10T10:29:15.525Z,2503.12
2019-04-10T10:30:15.594Z,2418.75
2019-04-10T10:31:15.811Z,2581.88
2019-04-10T10:32:15.431Z,2683.12
2019-04-10T10:33:15.401Z,2677.50
2019-04-10T10:34:16.357Z,2733.75
2019-04-10T10:35:15.382Z,2604.38
2019-04-10T10:36:15.859Z,2497.50
2019-04-10T10:37:16.566Z,2514.38
2019-04-10T10:38:15.346Z,2486.25
2019-04-10T10:39:16.194Z,2536.88
2019-04-10T10:40:15.326Z,2531.25
2019-04-10T10:41:15.314Z,2469.38
2019-04-10T10:42:15.775Z,2098.12
2019-04-10T10:43:16.200Z,2570.62
2019-04-10T10:44:15.281Z,2655.00
2019-04-10T10:45:15.490Z,2722.50
2019-04-10T10:46:15.518Z,2835.00
2019-04-10T10:47:15.911Z,2795.62
2019-04-10T10:48:15.632Z,2705.62
2019-04-10T10:49:15.928Z,2863.12
2019-04-10T10:50:15.228Z,2964.38
2019-04-10T10:51:15.212Z,2986.88
2019-04-10T10:52:15.393Z,1783.12
2019-04-10T10:53:16.351Z,1732.50
2019-04-10T10:54:15.182Z,2773.12
2019-04-10T10:55:15.647Z,2761.88
2019-04-10T10:56:15.175Z,2998.12
2019-04-10T10:57:15.253Z,3088.12
2019-04-10T10:58:15.452Z,3037.50
2019-04-10T10:59:15.521Z,2975.62
2019-04-10T11:00:15.124Z,2885.62
2019-04-10T11:01:15.793Z,2970.00
2019-04-10T11:02:15.124Z,2761.88
2019-04-10T11:03:16.103Z,2711.25
2019-04-10T11:04:15.093Z,2778.75
2019-04-10T11:05:15.100Z,2806.88
2019-04-10T11:06:16.161Z,2745.00
2019-04-10T11:07:16.107Z,2761.88
2019-04-10T11:08:15.359Z,2846.25
2019-04-10T11:09:15.684Z,2874.38
2019-04-10T11:10:15.030Z,2745.00
2019-04-10T11:11:15.021Z,2767.50
2019-04-10T11:12:15.023Z,2407.50
2019-04-10T11:13:15.086Z,2553.75
2019-04-10T11:14:15.087Z,2874.38
2019-04-10T11:15:16.163Z,3313.12
2019-04-10T11:16:14.974Z,3217.50
2019-04-10T11:17:15.807Z,3054.38
2019-04-10T11:18:15.842Z,3223.12
2019-04-10T11:19:15.337Z,3442.50
2019-04-10T11:20:15.267Z,3521.25
2019-04-10T11:21:14.925Z,3560.62
2019-04-10T11:22:21.826Z,3375.00
2019-04-10T11:23:15.903Z,3161.25
2019-04-10T11:24:15.040Z,2958.75
2019-04-10T11:25:15.711Z,2902.50
2019-04-10T11:26:19.996Z,2885.62
2019-04-10T11:27:16.061Z,2930.62
2019-04-10T11:28:16.148Z,3099.38
2019-04-10T11:29:14.850Z,3211.88
2019-04-10T11:30:15.986Z,3358.12
2019-04-10T11:31:15.920Z,3346.88
2019-04-10T11:32:14.828Z,3178.12
2019-04-10T11:33:14.969Z,3031.88
2019-04-10T11:34:16.470Z,2953.12
2019-04-10T11:35:15.550Z,3015.00
2019-04-10T11:36:15.118Z,3161.25
2019-04-10T11:37:24.201Z,3071.25
2019-04-10T11:38:17.481Z,2846.25
2019-04-10T11:39:22.571Z,2773.12
2019-04-10T11:40:17.976Z,3009.38
2019-04-10T11:41:15.018Z,3150.00
2019-04-10T11:42:14.745Z,3127.50
2019-04-10T11:43:14.722Z,3228.75
2019-04-10T11:44:17.156Z,3369.38
2019-04-10T11:45:16.996Z,2992.50
2019-04-10T11:46:14.714Z,2660.62
2019-04-10T11:47:14.926Z,2880.00
2019-04-10T11:48:16.349Z,3048.75
2019-04-10T11:49:15.955Z,3172.50
2019-04-10T11:50:17.763Z,2688.75
2019-04-10T11:51:16.475Z,2745.00
2019-04-10T11:52:17.225Z,2621.25
2019-04-10T11:53:18.706Z,2874.38
2019-04-10T11:54:15.399Z,2677.50
2019-04-10T11:55:19.387Z,2767.50
2019-04-10T11:56:18.913Z,2745.00
2019-04-10T11:57:17.702Z,2655.00
2019-04-10T11:58:17.598Z,2919.38
2019-04-10T11:59:14.602Z,3054.38
2019-04-10T12:00:19.131Z,3009.38
2019-04-10T12:01:17.554Z,2756.25
2019-04-10T12:02:17.104Z,2829.38
2019-04-10T12:03:18.114Z,3330.00
2019-04-10T12:04:16.587Z,3358.12
2019-04-10T12:05:19.087Z,2992.50
2019-04-10T12:06:17.432Z,2761.88
2019-04-10T12:07:49.146Z,2503.12
2019-04-10T12:11:18.818Z,1530.00
2019-04-10T12:12:15.448Z,1535.62
2019-04-10T12:13:17.003Z,1631.25
2019-04-10T12:14:15.429Z,3178.12
2019-04-10T12:15:14.412Z,3048.75
2019-04-10T12:16:14.803Z,2677.50
2019-04-10T12:17:14.399Z,3470.62
2019-04-10T12:18:14.387Z,3015.00
2019-04-10T12:19:15.232Z,2221.88
2019-04-10T12:20:14.367Z,2188.12
2019-04-10T12:21:14.350Z,1749.38
2019-04-10T12:22:14.345Z,1693.12
2019-04-10T12:23:14.333Z,1693.12
2019-04-10T12:24:14.327Z,2019.38
2019-04-10T12:25:14.495Z,2081.25
2019-04-10T12:26:14.317Z,2857.50
2019-04-10T12:27:14.696Z,2587.50
2019-04-10T12:28:14.293Z,2047.50
2019-04-10T12:29:14.276Z,2008.12
2019-04-10T12:30:15.309Z,2418.75
2019-04-10T12:31:15.515Z,2120.62
2019-04-10T12:32:14.602Z,2891.25
2019-04-10T12:33:14.243Z,2913.75
2019-04-10T12:34:14.964Z,2941.88
2019-04-10T12:35:15.158Z,2863.12
2019-04-10T12:36:14.223Z,2261.25
2019-04-10T12:37:15.133Z,2278.12
2019-04-10T12:38:15.095Z,2840.62